createdAt,value
2022-10-15T00:01:46.256Z,80.08
2022-10-15T00:04:13.940Z,79.98
2022-10-15T00:06:41.975Z,79.53
2022-10-15T00:09:09.596Z,80.08
2022-10-15T00:11:37.326Z,79.65
2022-10-15T00:14:04.967Z,79.99
2022-10-15T00:16:32.566Z,79.77
2022-10-15T00:19:00.218Z,79.50
2022-10-15T00:21:28.031Z,79.07
2022-10-15T00:23:55.981Z,79.79
2022-10-15T00:26:23.747Z,79.92
2022-10-15T00:28:51.985Z,79.88
2022-10-15T00:31:20.291Z,79.82
2022-10-15T00:33:48.132Z,79.28
2022-10-15T00:36:16.114Z,79.94
2022-10-15T00:38:43.678Z,79.48
2022-10-15T00:41:11.338Z,79.59
2022-10-15T00:43:38.952Z,79.47
2022-10-15T00:46:06.802Z,80.28
2022-10-15T00:48:34.631Z,80.13
2022-10-15T00:51:02.815Z,79.65
2022-10-15T00:53:30.520Z,79.67
2022-10-15T00:55:58.211Z,80.15
2022-10-15T00:58:28.457Z,79.77
2022-10-15T01:00:56.506Z,80.15
2022-10-15T01:03:24.157Z,80.30
2022-10-15T01:05:51.742Z,79.71
2022-10-15T01:08:19.317Z,79.97
2022-10-15T01:10:47.375Z,80.38
2022-10-15T01:13:15.802Z,80.42
2022-10-15T01:15:43.367Z,80.67
2022-10-15T01:18:10.949Z,80.51
2022-10-15T01:20:38.516Z,80.84
2022-10-15T01:23:06.296Z,80.27
2022-10-15T01:25:34.234Z,80.12
2022-10-15T01:28:01.818Z,81.09
2022-10-15T01:30:29.399Z,80.46
2022-10-15T01:32:57.084Z,80.76
2022-10-15T01:35:26.217Z,80.60
2022-10-15T01:37:54.133Z,81.23
2022-10-15T01:40:21.816Z,81.31
2022-10-15T01:42:49.506Z,80.78
2022-10-15T01:45:17.047Z,81.04
2022-10-15T01:47:44.655Z,81.18
2022-10-15T01:50:12.608Z,80.80
2022-10-15T01:52:40.230Z,80.95
2022-10-15T01:55:07.869Z,80.93
2022-10-15T01:57:35.788Z,81.14
2022-10-15T02:00:04.447Z,80.75
2022-10-15T02:02:32.393Z,80.67
2022-10-15T02:04:59.965Z,80.77
2022-10-15T02:07:27.504Z,80.79
2022-10-15T02:09:55.087Z,80.71
2022-10-15T02:12:23.055Z,80.86
2022-10-15T02:14:51.129Z,80.47
2022-10-15T02:17:18.755Z,81.09
2022-10-15T02:19:46.465Z,81.24
2022-10-15T02:22:14.096Z,80.88
2022-10-15T02:24:41.935Z,81.10
2022-10-15T02:27:09.876Z,80.82
2022-10-15T02:29:37.992Z,80.87
2022-10-15T02:32:05.609Z,81.34
2022-10-15T02:34:33.155Z,81.09
2022-10-15T02:37:00.729Z,80.74
2022-10-15T02:39:28.686Z,81.15
2022-10-15T02:41:56.242Z,81.21
2022-10-15T02:44:23.784Z,81.13
2022-10-15T02:46:51.391Z,81.20
2022-10-15T02:49:18.952Z,80.27
2022-10-15T02:51:46.968Z,81.04
2022-10-15T02:54:14.709Z,81.00
2022-10-15T02:56:42.281Z,81.63
2022-10-15T02:59:09.857Z,80.77
2022-10-15T03:01:39.416Z,80.81
2022-10-15T03:04:07.361Z,81.30
2022-10-15T03:06:34.928Z,81.38
2022-10-15T03:09:02.556Z,81.74
2022-10-15T03:11:30.099Z,81.54
2022-10-15T03:13:57.842Z,81.40
2022-10-15T03:16:26.909Z,81.34
2022-10-15T03:18:54.454Z,81.07
2022-10-15T03:21:22.019Z,82.16
2022-10-15T03:23:50.070Z,81.41
2022-10-15T03:26:17.806Z,82.01
2022-10-15T03:28:45.830Z,81.47
2022-10-15T03:31:14.373Z,81.52
2022-10-15T03:33:41.917Z,81.47
2022-10-15T03:36:09.492Z,81.19
2022-10-15T03:38:37.305Z,81.95
2022-10-15T03:41:05.255Z,81.97
2022-10-15T03:43:32.803Z,82.24
2022-10-15T03:46:00.426Z,82.01
2022-10-15T03:48:27.957Z,82.45
2022-10-15T03:50:55.736Z,81.96
2022-10-15T03:53:23.520Z,82.20
2022-10-15T03:55:51.067Z,81.91
2022-10-15T03:58:18.621Z,81.80
2022-10-15T04:00:46.228Z,82.42
2022-10-15T04:03:13.991Z,82.51
2022-10-15T04:05:42.367Z,81.97
2022-10-15T04:08:09.964Z,83.18
2022-10-15T04:10:37.514Z,82.58
2022-10-15T04:13:05.065Z,82.65
2022-10-15T04:15:32.869Z,82.70
2022-10-15T04:18:00.464Z,83.24
2022-10-15T04:20:28.002Z,83.43
2022-10-15T04:22:55.592Z,83.09
2022-10-15T04:25:23.153Z,83.32
2022-10-15T04:27:53.464Z,82.85
2022-10-15T04:30:21.109Z,83.09
2022-10-15T04:32:48.634Z,83.72
2022-10-15T04:35:16.188Z,83.02
2022-10-15T04:37:43.782Z,83.22
2022-10-15T04:40:11.347Z,83.37
2022-10-15T04:42:39.548Z,83.06
2022-10-15T04:45:07.154Z,83.06
2022-10-15T04:47:34.716Z,83.12
2022-10-15T04:50:02.262Z,83.55
2022-10-15T04:52:29.879Z,83.26
2022-10-15T04:54:59.082Z,82.98
2022-10-15T04:57:27.121Z,82.89
2022-10-15T04:59:57.652Z,82.46
2022-10-15T05:02:25.582Z,83.35
2022-10-15T05:04:53.217Z,83.43
2022-10-15T05:07:21.420Z,82.77
2022-10-15T05:09:49.193Z,82.99
2022-10-15T05:12:20.269Z,82.96
2022-10-15T05:14:47.862Z,82.98
2022-10-15T05:17:15.603Z,83.16
2022-10-15T05:19:43.548Z,83.11
2022-10-15T05:22:11.163Z,83.07
2022-10-15T05:24:38.753Z,82.64
2022-10-15T05:27:06.325Z,82.55
2022-10-15T05:29:34.130Z,82.86
2022-10-15T05:32:02.112Z,82.82
2022-10-15T05:34:30.771Z,83.34
2022-10-15T05:36:58.442Z,83.27
2022-10-15T05:39:25.993Z,83.27
2022-10-15T05:41:53.785Z,83.36
2022-10-15T05:44:21.712Z,83.38
2022-10-15T05:46:49.262Z,83.42
2022-10-15T05:49:16.855Z,83.54
2022-10-15T05:51:44.464Z,83.50
2022-10-15T05:54:12.301Z,83.58
2022-10-15T05:56:40.744Z,84.06
2022-10-15T05:59:08.339Z,84.10
2022-10-15T06:01:37.903Z,84.06
2022-10-15T06:04:05.552Z,84.55
2022-10-15T06:06:33.312Z,84.33
2022-10-15T06:09:02.107Z,84.46
2022-10-15T06:11:29.769Z,84.14
2022-10-15T06:13:57.401Z,84.27
2022-10-15T06:16:25.044Z,84.72
2022-10-15T06:18:52.853Z,84.56
2022-10-15T06:21:20.536Z,83.51
2022-10-15T06:23:48.120Z,84.19
2022-10-15T06:26:15.717Z,83.21
2022-10-15T06:28:43.404Z,83.42
2022-10-15T06:31:11.312Z,82.93
2022-10-15T06:33:39.345Z,83.31
2022-10-15T06:36:06.969Z,82.20
2022-10-15T06:38:34.550Z,81.73
2022-10-15T06:41:02.565Z,82.04
2022-10-15T06:43:32.644Z,81.82
2022-10-15T06:46:02.936Z,81.52
2022-10-15T06:48:30.585Z,81.91
2022-10-15T06:50:58.144Z,81.28
2022-10-15T06:53:25.760Z,81.15
2022-10-15T06:55:53.383Z,81.16
2022-10-15T06:58:21.161Z,81.42
2022-10-15T07:00:48.757Z,80.70
2022-10-15T07:03:16.913Z,81.02
2022-10-15T07:05:44.579Z,80.89
2022-10-15T07:08:16.845Z,80.83
2022-10-15T07:10:47.357Z,80.63
2022-10-15T07:13:16.265Z,80.49
2022-10-15T07:15:44.816Z,81.04
2022-10-15T07:18:12.719Z,80.49
2022-10-15T07:20:40.348Z,80.84
2022-10-15T07:23:08.369Z,80.50
2022-10-15T07:25:36.285Z,80.31
2022-10-15T07:28:04.006Z,79.65
2022-10-15T07:30:31.815Z,79.91
2022-10-15T07:32:59.480Z,79.63
2022-10-15T07:35:27.503Z,79.46
2022-10-15T07:37:55.169Z,79.74
2022-10-15T07:40:22.824Z,79.47
2022-10-15T07:42:50.780Z,79.27
2022-10-15T07:45:18.443Z,78.98
2022-10-15T07:47:46.447Z,79.07
2022-10-15T07:50:14.104Z,78.81
2022-10-15T07:52:41.712Z,78.75
2022-10-15T07:55:09.800Z,78.75
2022-10-15T07:57:37.457Z,78.73
2022-10-15T08:00:05.478Z,78.99
2022-10-15T08:02:33.230Z,78.42
2022-10-15T08:05:00.896Z,78.12
2022-10-15T08:07:28.878Z,78.36
2022-10-15T08:09:57.002Z,78.54
2022-10-15T08:12:25.424Z,78.58
2022-10-15T08:14:53.417Z,78.02
2022-10-15T08:17:21.138Z,77.54
2022-10-15T08:19:48.918Z,77.51
2022-10-15T08:22:16.673Z,77.19
2022-10-15T08:24:44.776Z,77.11
2022-10-15T08:27:12.475Z,77.32
2022-10-15T08:29:40.122Z,77.76
2022-10-15T08:32:10.015Z,77.56
2022-10-15T08:34:37.745Z,77.18
2022-10-15T08:37:05.800Z,77.53
2022-10-15T08:39:33.714Z,77.63
2022-10-15T08:42:01.487Z,77.12
2022-10-15T08:44:29.162Z,76.61
2022-10-15T08:46:56.904Z,76.65
2022-10-15T08:49:25.007Z,76.94
2022-10-15T08:51:53.739Z,76.67
2022-10-15T08:54:21.870Z,76.71
2022-10-15T08:56:49.547Z,76.61
2022-10-15T08:59:17.281Z,77.05
2022-10-15T09:01:45.092Z,76.93
2022-10-15T09:04:12.742Z,76.99
2022-10-15T09:06:40.474Z,76.33
2022-10-15T09:09:08.550Z,76.50
2022-10-15T09:11:36.214Z,76.28
2022-10-15T09:14:04.244Z,76.18
2022-10-15T09:16:32.108Z,76.02
2022-10-15T09:18:59.870Z,75.89
2022-10-15T09:21:28.162Z,75.32
2022-10-15T09:23:55.998Z,74.93
2022-10-15T09:26:24.026Z,74.72
2022-10-15T09:28:51.768Z,74.87
2022-10-15T09:31:19.558Z,74.30
2022-10-15T09:33:47.546Z,74.46
2022-10-15T09:36:15.839Z,74.72
2022-10-15T09:38:43.964Z,74.54
2022-10-15T09:41:16.800Z,74.60
2022-10-15T09:43:44.907Z,74.43
2022-10-15T09:46:13.291Z,74.08
2022-10-15T09:48:40.959Z,73.73
2022-10-15T09:51:09.191Z,73.73
2022-10-15T09:53:36.987Z,73.58
2022-10-15T09:56:04.756Z,72.93
2022-10-15T09:58:34.621Z,73.27
2022-10-15T10:01:02.348Z,72.10
2022-10-15T10:03:30.516Z,71.89
2022-10-15T10:05:58.462Z,71.40
2022-10-15T10:08:26.281Z,71.54
2022-10-15T10:10:54.410Z,70.94
2022-10-15T10:13:22.198Z,70.34
2022-10-15T10:15:51.942Z,69.95
2022-10-15T10:18:21.477Z,70.14
2022-10-15T10:20:49.886Z,69.42
2022-10-15T10:23:18.056Z,69.58
2022-10-15T10:25:45.797Z,70.05
2022-10-15T10:28:14.158Z,70.38
2022-10-15T10:30:42.897Z,70.65
2022-10-15T10:33:10.691Z,70.35
2022-10-15T10:35:38.901Z,70.51
2022-10-15T10:38:06.705Z,71.10
2022-10-15T10:40:34.883Z,71.40
2022-10-15T10:43:02.733Z,71.44
2022-10-15T10:45:30.441Z,71.83
2022-10-15T10:48:00.825Z,71.81
2022-10-15T10:50:28.722Z,71.84
2022-10-15T10:52:57.077Z,71.38
2022-10-15T10:55:25.765Z,70.78
2022-10-15T10:57:54.287Z,70.49
2022-10-15T11:00:22.110Z,69.79
2022-10-15T11:02:50.255Z,69.02
2022-10-15T11:05:18.426Z,68.78
2022-10-15T11:07:46.320Z,68.97
2022-10-15T11:10:14.114Z,68.32
2022-10-15T11:12:42.341Z,68.73
2022-10-15T11:15:10.028Z,69.43
2022-10-15T11:17:38.397Z,69.70
2022-10-15T11:20:27.024Z,69.95
2022-10-15T11:22:55.078Z,70.83
2022-10-15T11:25:22.809Z,71.19
2022-10-15T11:27:50.912Z,72.39
2022-10-15T11:30:18.720Z,73.38
2022-10-15T11:33:06.327Z,73.46
2022-10-15T11:35:52.023Z,73.39
2022-10-15T11:38:21.469Z,73.16
2022-10-15T11:40:49.294Z,72.46
2022-10-15T11:43:17.978Z,71.14
2022-10-15T11:45:48.826Z,70.20
2022-10-15T11:48:16.715Z,69.73
2022-10-15T11:50:44.958Z,69.91
2022-10-15T11:53:12.815Z,69.97
2022-10-15T11:55:40.563Z,69.47
2022-10-15T11:58:08.756Z,68.79
2022-10-15T12:00:36.592Z,69.05
2022-10-15T12:03:05.003Z,67.72
2022-10-15T12:05:33.314Z,66.88
2022-10-15T12:08:01.360Z,66.80
2022-10-15T12:10:29.311Z,66.49
2022-10-15T12:12:57.158Z,66.54
2022-10-15T12:15:25.359Z,67.46
2022-10-15T12:17:53.143Z,67.83
2022-10-15T12:20:20.900Z,67.28
2022-10-15T12:22:50.434Z,67.05
2022-10-15T12:25:18.329Z,66.55
2022-10-15T12:27:46.765Z,65.89
2022-10-15T12:30:14.698Z,66.27
2022-10-15T12:32:42.421Z,65.86
2022-10-15T12:35:10.507Z,65.41
2022-10-15T12:37:38.455Z,64.75
2022-10-15T12:40:06.174Z,65.65
2022-10-15T12:42:33.952Z,65.32
2022-10-15T12:45:02.995Z,65.23
2022-10-15T12:47:31.493Z,65.40
2022-10-15T12:49:59.352Z,65.50
2022-10-15T12:52:27.519Z,65.83
2022-10-15T12:54:58.956Z,66.24
2022-10-15T12:57:29.787Z,67.26
2022-10-15T12:59:58.406Z,67.35
2022-10-15T13:02:26.149Z,67.64
2022-10-15T13:04:54.427Z,68.13
2022-10-15T13:07:22.484Z,68.16
2022-10-15T13:09:50.511Z,68.44
2022-10-15T13:12:20.361Z,68.72
2022-10-15T13:14:48.696Z,68.84
2022-10-15T13:17:16.422Z,68.72
2022-10-15T13:19:44.352Z,68.56
2022-10-15T13:22:12.251Z,68.78
2022-10-15T13:24:40.311Z,68.65
2022-10-15T13:27:08.096Z,68.68
2022-10-15T13:29:36.254Z,68.83
2022-10-15T13:32:05.466Z,69.10
2022-10-15T13:34:33.799Z,69.40
2022-10-15T13:37:02.203Z,70.17
2022-10-15T13:39:30.035Z,70.27
2022-10-15T13:41:58.248Z,70.78
2022-10-15T13:44:26.029Z,71.04
2022-10-15T13:46:53.821Z,70.65
2022-10-15T13:49:24.194Z,70.44
2022-10-15T13:51:54.324Z,70.93
2022-10-15T13:54:22.630Z,70.68
2022-10-15T13:56:50.911Z,70.87
2022-10-15T13:59:19.132Z,70.78
2022-10-15T14:01:47.109Z,70.42
2022-10-15T14:04:14.908Z,70.50
2022-10-15T14:06:44.619Z,70.81
2022-10-15T14:09:12.574Z,70.43
2022-10-15T14:11:40.813Z,70.45
2022-10-15T14:14:09.093Z,71.18
2022-10-15T14:16:36.864Z,70.73
2022-10-15T14:19:05.193Z,70.92
2022-10-15T14:21:33.313Z,70.93
2022-10-15T14:24:01.378Z,70.76
2022-10-15T14:26:29.227Z,70.74
2022-10-15T14:28:57.523Z,71.24
2022-10-15T14:31:25.862Z,71.06
2022-10-15T14:33:53.710Z,71.10
2022-10-15T14:36:21.458Z,71.40
2022-10-15T14:38:49.784Z,71.71
2022-10-15T14:41:17.742Z,71.47
2022-10-15T14:43:46.908Z,71.95
2022-10-15T14:46:14.833Z,71.87
2022-10-15T14:48:42.778Z,72.33
2022-10-15T14:51:10.923Z,72.21
2022-10-15T14:53:38.716Z,72.07
2022-10-15T14:56:07.585Z,71.96
2022-10-15T14:58:35.399Z,71.87
2022-10-15T15:01:03.267Z,72.03
2022-10-15T15:03:31.500Z,72.37
2022-10-15T15:05:59.567Z,72.44
2022-10-15T15:08:27.852Z,72.72
2022-10-15T15:10:55.620Z,72.10
2022-10-15T15:13:23.512Z,72.37
2022-10-15T15:15:51.421Z,72.43
2022-10-15T15:18:19.257Z,71.92
2022-10-15T15:20:49.182Z,70.91
2022-10-15T15:23:17.538Z,71.01
2022-10-15T15:25:45.543Z,71.27
2022-10-15T15:28:13.573Z,71.88
2022-10-15T15:30:41.291Z,72.07
2022-10-15T15:33:09.746Z,72.48
2022-10-15T15:35:37.606Z,72.57
2022-10-15T15:38:05.402Z,72.52
2022-10-15T15:40:33.912Z,72.76
2022-10-15T15:43:01.826Z,72.69
2022-10-15T15:45:30.169Z,73.10
2022-10-15T15:48:02.405Z,73.40
2022-10-15T15:50:30.281Z,73.13
2022-10-15T15:52:58.493Z,73.50
2022-10-15T15:55:26.342Z,73.43
2022-10-15T15:57:54.535Z,73.41
2022-10-15T16:00:22.363Z,73.85
2022-10-15T16:02:52.949Z,74.16
2022-10-15T16:05:26.733Z,74.30
2022-10-15T16:07:54.760Z,74.46
2022-10-15T16:10:22.546Z,74.45
2022-10-15T16:12:50.345Z,74.38
2022-10-15T16:15:18.334Z,74.52
2022-10-15T16:17:46.349Z,73.92
2022-10-15T16:20:14.412Z,74.24
2022-10-15T16:22:42.905Z,74.08
2022-10-15T16:25:10.759Z,75.12
2022-10-15T16:27:39.123Z,75.20
2022-10-15T16:30:07.322Z,76.24
2022-10-15T16:32:35.461Z,76.05
2022-10-15T16:35:03.321Z,76.67
2022-10-15T16:37:31.139Z,76.45
2022-10-15T16:39:59.087Z,76.50
2022-10-15T16:42:27.035Z,77.59
2022-10-15T16:44:55.258Z,77.33
2022-10-15T16:47:23.254Z,77.82
2022-10-15T16:49:51.232Z,77.72
2022-10-15T16:52:19.100Z,78.22
2022-10-15T16:54:47.685Z,78.80
2022-10-15T16:57:15.818Z,78.47
2022-10-15T16:59:43.746Z,78.48
2022-10-15T17:02:11.844Z,78.62
2022-10-15T17:04:40.056Z,78.97
2022-10-15T17:07:08.390Z,78.35
2022-10-15T17:09:36.717Z,78.54
2022-10-15T17:12:05.046Z,78.33
2022-10-15T17:14:32.827Z,78.47
2022-10-15T17:17:00.608Z,78.49
2022-10-15T17:19:31.778Z,78.33
2022-10-15T17:22:02.225Z,79.19
2022-10-15T17:24:29.988Z,78.87
2022-10-15T17:26:58.397Z,79.10
2022-10-15T17:29:29.146Z,78.98
2022-10-15T17:32:01.480Z,78.85
2022-10-15T17:34:29.825Z,78.69
2022-10-15T17:36:57.730Z,78.16
2022-10-15T17:39:25.505Z,78.49
2022-10-15T17:41:53.475Z,78.38
2022-10-15T17:44:21.715Z,78.08
2022-10-15T17:46:49.948Z,78.44
2022-10-15T17:49:19.021Z,78.57
2022-10-15T17:51:46.840Z,78.32
2022-10-15T17:54:15.047Z,78.52
2022-10-15T17:56:43.322Z,79.05
2022-10-15T17:59:11.603Z,79.37
2022-10-15T18:01:57.968Z,79.13
2022-10-15T18:04:26.530Z,79.47
2022-10-15T18:06:54.652Z,79.01
2022-10-15T18:09:22.491Z,79.23
2022-10-15T18:11:50.734Z,79.52
2022-10-15T18:16:51.711Z,79.12
2022-10-15T18:19:19.755Z,79.09
2022-10-15T18:21:49.610Z,79.52
2022-10-15T18:24:20.235Z,79.01
2022-10-15T18:26:48.223Z,79.52
2022-10-15T18:29:16.104Z,79.26
2022-10-15T18:31:44.387Z,79.67
2022-10-15T18:34:12.773Z,78.84
2022-10-15T18:36:42.569Z,79.14
2022-10-15T18:39:10.466Z,79.39
2022-10-15T18:41:40.201Z,79.35
2022-10-15T18:44:08.399Z,79.10
2022-10-15T18:46:36.742Z,79.34
2022-10-15T18:49:04.542Z,79.71
2022-10-15T18:51:32.333Z,79.60
2022-10-15T18:54:00.369Z,79.60
2022-10-15T18:56:29.806Z,80.04
2022-10-15T18:58:58.048Z,80.15
2022-10-15T19:01:26.082Z,80.16
2022-10-15T19:03:54.023Z,80.24
2022-10-15T19:06:21.923Z,80.63
2022-10-15T19:08:50.176Z,80.19
2022-10-15T19:11:18.686Z,80.13
2022-10-15T19:13:46.596Z,79.94
2022-10-15T19:16:14.658Z,80.46
2022-10-15T19:18:42.516Z,80.09
2022-10-15T19:21:10.530Z,80.15
2022-10-15T19:23:39.018Z,80.88
2022-10-15T19:26:06.978Z,81.01
2022-10-15T19:28:34.901Z,81.09
2022-10-15T19:31:02.760Z,80.81
2022-10-15T19:33:31.437Z,80.82
2022-10-15T19:35:59.586Z,80.87
2022-10-15T19:38:27.877Z,81.00
2022-10-15T19:40:56.114Z,81.38
2022-10-15T19:43:24.028Z,81.08
2022-10-15T19:45:51.976Z,81.28
2022-10-15T19:48:20.321Z,81.29
2022-10-15T19:50:48.113Z,81.35
2022-10-15T19:53:16.708Z,81.19
2022-10-15T19:55:44.729Z,81.24
2022-10-15T19:58:13.041Z,81.38
2022-10-15T20:00:41.360Z,81.05
2022-10-15T20:03:09.952Z,80.47
2022-10-15T20:05:37.796Z,80.71
2022-10-15T20:08:05.776Z,80.81
2022-10-15T20:10:33.642Z,80.95
2022-10-15T20:13:01.839Z,80.80
2022-10-15T20:15:29.980Z,81.20
2022-10-15T20:17:57.839Z,81.33
2022-10-15T20:20:25.656Z,81.12
2022-10-15T20:22:53.799Z,81.02
2022-10-15T20:25:22.557Z,80.66
2022-10-15T20:27:50.471Z,81.08
2022-10-15T20:30:18.293Z,80.37
2022-10-15T20:32:46.776Z,81.02
2022-10-15T20:35:14.696Z,80.81
2022-10-15T20:37:43.086Z,81.04
2022-10-15T20:40:10.933Z,80.97
2022-10-15T20:42:38.850Z,79.98
2022-10-15T20:45:06.647Z,80.96
2022-10-15T20:47:34.961Z,81.25
2022-10-15T20:50:03.327Z,81.02
2022-10-15T20:52:31.639Z,80.60
2022-10-15T20:54:59.530Z,80.31
2022-10-15T20:57:27.490Z,80.93
2022-10-15T20:59:55.605Z,80.68
2022-10-15T21:02:23.945Z,80.59
2022-10-15T21:04:53.587Z,80.37
2022-10-15T21:09:54.665Z,80.39
2022-10-15T21:12:22.756Z,80.64
2022-10-15T21:14:51.120Z,80.94
2022-10-15T21:17:19.030Z,80.16
2022-10-15T21:19:50.365Z,80.72
2022-10-15T21:22:20.569Z,80.03
2022-10-15T21:24:48.692Z,80.22
2022-10-15T21:27:16.762Z,80.14
2022-10-15T21:29:45.687Z,80.35
2022-10-15T21:32:13.603Z,80.22
2022-10-15T21:37:09.078Z,80.21
2022-10-15T21:39:37.255Z,80.21
2022-10-15T21:42:05.006Z,80.51
2022-10-15T21:44:33.754Z,80.45
2022-10-15T21:47:01.547Z,80.18
2022-10-15T21:49:29.412Z,80.15
2022-10-15T21:51:57.614Z,80.15
2022-10-15T21:54:25.323Z,80.52
2022-10-15T21:56:53.155Z,80.28
2022-10-15T21:59:20.864Z,80.31
2022-10-15T22:01:48.925Z,80.19
2022-10-15T22:04:17.287Z,80.56
2022-10-15T22:06:45.062Z,79.96
2022-10-15T22:09:12.947Z,80.22
2022-10-15T22:11:41.059Z,80.58
2022-10-15T22:14:09.138Z,80.79
2022-10-15T22:16:37.310Z,80.29
2022-10-15T22:19:05.104Z,80.58
2022-10-15T22:21:32.796Z,80.33
2022-10-15T22:24:00.594Z,79.66
2022-10-15T22:26:28.581Z,80.26
2022-10-15T22:28:56.674Z,79.66
2022-10-15T22:31:24.580Z,79.54
2022-10-15T22:33:52.718Z,79.97
2022-10-15T22:36:20.485Z,80.33
2022-10-15T22:38:48.564Z,80.16
2022-10-15T22:41:16.768Z,79.92
2022-10-15T22:43:44.463Z,80.18
2022-10-15T22:46:12.243Z,79.94
2022-10-15T22:48:39.931Z,80.26
2022-10-15T22:51:07.949Z,80.07
2022-10-15T22:53:36.069Z,80.32
2022-10-15T22:56:04.330Z,80.29
2022-10-15T22:58:32.096Z,80.19
2022-10-15T23:00:59.877Z,79.80
2022-10-15T23:03:28.001Z,80.04
2022-10-15T23:05:56.124Z,80.36
2022-10-15T23:08:23.840Z,79.79
2022-10-15T23:10:51.475Z,80.02
2022-10-15T23:13:19.171Z,79.69
2022-10-15T23:15:46.881Z,79.97
2022-10-15T23:18:14.967Z,79.90
2022-10-15T23:20:42.636Z,80.11
2022-10-15T23:23:10.347Z,80.59
2022-10-15T23:25:37.996Z,80.08
2022-10-15T23:28:05.610Z,80.29
2022-10-15T23:30:33.306Z,80.35
2022-10-15T23:33:00.965Z,79.81
2022-10-15T23:35:28.597Z,80.53
2022-10-15T23:37:56.327Z,80.66
2022-10-15T23:40:25.399Z,80.67
2022-10-15T23:42:52.986Z,80.91
2022-10-15T23:45:20.651Z,79.92
2022-10-15T23:47:48.411Z,80.35
2022-10-15T23:50:16.000Z,80.63
2022-10-15T23:52:44.002Z,80.20
2022-10-15T23:55:12.044Z,80.99
2022-10-15T23:57:39.659Z,80.39
